Lehmann Sound — V2EM3 — position and weather

sailwx.info

Track history (hours):
 
Tides and Currents Weather Stations Pressure Air Temp Water Temp Dewpoint Dewpoint Depression Visibility Wind Speed Wind Dir Waves Ship Positions

Lehmann Sound

Last reported at 2015-Aug-23 15:11 UTC. Time now 2015-Aug-28 17:15 UTC.
Position N 56°56' E 020°07'.

Length 90 m; draft 3.9 m.

Type: Cargo ship. MMSI: 305476000.

Date/timePositionNaut miles runAvg speedWind from/ knotsBaromVisibWave heightAir tempDewpointWater temp
2015-Aug-23 15:11N 56°56' E 020°07'6 9.6
2015-Aug-23 14:31N 56°52' E 019°59'9 9.7
2015-Aug-23 13:33N 56°45' E 019°46'10 9.9
2015-Aug-23 12:33N 56°39' E 019°33'10 9.9
2015-Aug-23 11:33N 56°32' E 019°20'10 9.8
2015-Aug-23 10:33N 56°25' E 019°07'10 9.7
2015-Aug-23 09:33N 56°18' E 018°55'10 9.8
2015-Aug-23 08:33N 56°11' E 018°42'10 9.9
2015-Aug-23 07:33N 56°05' E 018°29'1010.0
2015-Aug-23 06:33N 55°58' E 018°15'10 9.9
2015-Aug-23 05:32N 55°51' E 018°02'1010.0
2015-Aug-23 04:33N 55°45' E 017°49'1010.0
2015-Aug-23 03:33N 55°38' E 017°35'1010.0
2015-Aug-23 02:33N 55°31' E 017°22'1010.1
2015-Aug-23 01:33N 55°24' E 017°09'1010.2
2015-Aug-23 00:33N 55°18' E 016°55'1010.1
2015-Aug-22 23:33N 55°12' E 016°42'10 9.7
2015-Aug-22 22:33N 55°05' E 016°29'10 9.9
2015-Aug-22 21:33N 54°59' E 016°16'1010.0
2015-Aug-22 20:33N 54°52' E 016°03'10 9.8
2015-Aug-22 19:33N 54°46' E 015°50'10 9.7
2015-Aug-22 18:33N 54°39' E 015°38'10 9.5
2015-Aug-22 17:33N 54°33' E 015°25'10 9.6
2015-Aug-22 16:33N 54°27' E 015°13'9 9.3
2015-Aug-22 15:33N 54°21' E 015°00'10 9.7
2015-Aug-22 14:33N 54°15' E 014°47'10 9.7
2015-Aug-22 13:33N 54°09' E 014°34'10 9.7
2015-Aug-22 12:33N 54°03' E 014°21'7 7.4
2015-Aug-22 11:33N 53°56' E 014°17'2 2.3
2015-Aug-22 10:32N 53°54' E 014°16'0 0.0
2015-Aug-22 09:32N 53°54' E 014°16'0 0.0
2015-Aug-22 08:32N 53°54' E 014°16'0 0.0
2015-Aug-22 07:32N 53°54' E 014°16'0 0.0
2015-Aug-22 06:32N 53°54' E 014°16'9 2.9
2015-Aug-22 03:33N 54°02' E 014°13'6 6.5
2015-Aug-22 02:33N 54°08' E 014°07'9 9.0
2015-Aug-22 01:33N 54°16' E 014°00'9 9.3
2015-Aug-22 00:34N 54°24' E 013°53'10 9.9
2015-Aug-21 23:34N 54°33' E 013°45'10 9.9
2015-Aug-21 22:33N 54°40' E 013°34'9 9.5
2015-Aug-21 21:33N 54°43' E 013°18'10 9.8
2015-Aug-21 20:33N 54°42' E 013°01'9 9.5
2015-Aug-21 19:34N 54°40' E 012°45'1010.0
2015-Aug-21 18:34N 54°35' E 012°30'10 9.8
2015-Aug-21 17:33N 54°30' E 012°16'9 8.7
2015-Aug-21 16:33N 54°25' E 012°04'10 9.7
2015-Aug-21 15:34N 54°25' E 011°47'10 9.6
2015-Aug-21 14:33N 54°29' E 011°32'10 9.8
2015-Aug-21 13:33N 54°33' E 011°17'9 9.5
2015-Aug-21 12:34N 54°35' E 011°01'1211.1
2015-Aug-21 11:29N 54°34' E 010°41'1010.5
2015-Aug-21 10:33N 54°31' E 010°25'10 9.9
2015-Aug-21 09:33N 54°24' E 010°12'3 3.2
2015-Aug-21 08:34N 54°22' E 010°08'5 5.2
2015-Aug-21 07:33N 54°21' E 009°60'5 5.4
2015-Aug-21 06:34N 54°22' E 009°51'8 7.4
2015-Aug-21 05:32N 54°17' E 009°40'9 7.9
2015-Aug-21 04:23N 54°11' E 009°29'5 6.1
2015-Aug-21 03:34N 54°09' E 009°21'7 7.4
2015-Aug-21 02:33N 54°02' E 009°18'7 7.5
2015-Aug-21 01:33N 53°55' E 009°12'4 3.7
2015-Aug-21 00:33N 53°53' E 009°06'5 4.5
2015-Aug-20 23:33N 53°51' E 008°60'9 8.5
2015-Aug-20 22:33N 53°51' E 008°45'8 8.1
2015-Aug-20 21:33N 53°57' E 008°36'8 8.3
2015-Aug-20 20:33N 53°59' E 008°23'10 9.6
2015-Aug-20 19:33N 53°59' E 008°06'10 9.5
2015-Aug-20 18:33N 53°57' E 007°51'9 9.3
2015-Aug-20 17:33N 53°55' E 007°35'10 9.6
2015-Aug-20 16:33N 53°52' E 007°19'9 9.0
2015-Aug-20 15:33N 53°50' E 007°04'8 8.6
2015-Aug-20 14:34N 53°48' E 006°51'19 9.3
2015-Aug-20 12:29N 53°43' E 006°19'910.0
2015-Aug-20 11:33N 53°40' E 006°04'1010.2
2015-Aug-20 10:33N 53°37' E 005°48'1010.4
2015-Aug-20 09:33N 53°34' E 005°31'1010.3
2015-Aug-20 08:33N 53°31' E 005°15'1010.4
2015-Aug-20 07:33N 53°27' E 004°58'1110.5
2015-Aug-20 06:33N 53°22' E 004°43'1111.0
2015-Aug-20 05:33N 53°12' E 004°34'1210.7
2015-Aug-20 04:28N 53°02' E 004°24'10 9.9
2015-Aug-20 03:24N 52°53' E 004°15'8 9.5
2015-Aug-20 02:31N 52°46' E 004°08'11 9.3
2015-Aug-20 01:19N 52°38' E 003°55'7 9.1
2015-Aug-20 00:33N 52°33' E 003°47'9 8.7
2015-Aug-19 23:33N 52°26' E 003°38'29 9.6
2015-Aug-19 20:33N 51°59' E 003°24'1411.2
2015-Aug-19 19:19N 51°46' E 003°16'1011.4
2015-Aug-19 18:28N 51°37' E 003°22'1112.2
2015-Aug-19 17:33N 51°28' E 003°31'8 7.7
2015-Aug-19 16:34N 51°27' E 003°43'0 0.0
2015-Aug-19 15:33N 51°27' E 003°43'0 0.0
2015-Aug-19 14:30N 51°27' E 003°43'0 0.0
2015-Aug-19 13:33N 51°27' E 003°43'0 0.0
2015-Aug-19 12:33N 51°27' E 003°43'0 0.0
2015-Aug-19 11:30N 51°27' E 003°43'0 0.0
2015-Aug-19 10:33N 51°27' E 003°43'0 0.0
2015-Aug-19 09:33N 51°27' E 003°43'0 0.0
2015-Aug-19 08:33N 51°27' E 003°43'0 0.0
2015-Aug-19 07:33N 51°27' E 003°43'0 0.0
2015-Aug-19 06:33N 51°27' E 003°43'0 0.0
2015-Aug-19 05:33N 51°27' E 003°43'0 0.0
2015-Aug-19 04:33N 51°27' E 003°43'0 0.0
2015-Aug-19 03:32N 51°27' E 003°43'0 0.0
2015-Aug-19 02:32N 51°27' E 003°43'0 0.0
2015-Aug-19 01:32N 51°27' E 003°43'0 0.0
2015-Aug-19 00:32N 51°27' E 003°43'3 2.8
2015-Aug-18 23:33N 51°26' E 003°39'1010.1
2015-Aug-18 22:33N 51°32' E 003°25'1310.3
2015-Aug-18 21:17N 51°43' E 003°15'8 9.7
2015-Aug-18 20:30N 51°51' E 003°15'9 9.8
2015-Aug-18 19:33N 51°60' E 003°20'9 8.0
2015-Aug-18 18:29N 52°03' E 003°33'7 8.0
2015-Aug-18 17:33N 52°03' E 003°45'7 7.3
2015-Aug-18 16:33N 52°02' E 003°57'9 8.5
2015-Aug-18 15:33N 51°58' E 004°09'9 9.0
2015-Aug-18 14:33N 51°52' E 004°20'9 8.9
2015-Aug-18 13:33N 51°49' E 004°34'3 3.1
2015-Aug-18 12:33N 51°48' E 004°38'0 0.0
2015-Aug-18 11:34N 51°48' E 004°38'0 0.0
2015-Aug-18 10:34N 51°48' E 004°38'0 0.0
2015-Aug-18 09:33N 51°48' E 004°38'0 0.0
2015-Aug-18 08:33N 51°48' E 004°38'0 0.0
2015-Aug-18 07:33N 51°48' E 004°38'0 0.0
2015-Aug-18 06:34N 51°48' E 004°38'0 0.0
2015-Aug-18 05:33N 51°48' E 004°38'0 0.0
2015-Aug-18 04:33N 51°48' E 004°38'0 0.0
2015-Aug-18 04:11N 51°48' E 004°38'0 0.0
2015-Aug-18 04:08N 51°48' E 004°38'0 0.0
2015-Aug-18 03:33N 51°48' E 004°38'0 0.0
2015-Aug-18 02:34N 51°48' E 004°38'0 0.0
2015-Aug-18 01:34N 51°48' E 004°38'0 0.0
2015-Aug-18 00:34N 51°48' E 004°38'0 0.0
2015-Aug-17 23:34N 51°48' E 004°38'0 0.0
2015-Aug-17 22:34N 51°48' E 004°38'0 0.0
2015-Aug-17 21:34N 51°48' E 004°38'0 0.0
2015-Aug-17 20:33N 51°48' E 004°38'0 0.0
2015-Aug-17 19:34N 51°48' E 004°38'0 0.0
2015-Aug-17 18:34N 51°48' E 004°38'0 0.0
2015-Aug-17 17:34N 51°48' E 004°38'0 0.0
2015-Aug-17 16:34N 51°48' E 004°38'0 0.0
2015-Aug-17 15:34N 51°48' E 004°38'0 0.0
2015-Aug-17 14:33N 51°48' E 004°38'0 0.0
2015-Aug-17 13:33N 51°48' E 004°38'0 0.0
2015-Aug-17 12:33N 51°48' E 004°38'0 0.0
2015-Aug-17 11:34N 51°48' E 004°38'0 0.0
2015-Aug-17 10:33N 51°48' E 004°38'0 0.0
2015-Aug-17 09:34N 51°48' E 004°38'0 0.0
2015-Aug-17 08:33N 51°48' E 004°38'0 0.0
2015-Aug-17 07:34N 51°48' E 004°38'0 0.0
2015-Aug-17 06:34N 51°48' E 004°38'0 0.0
2015-Aug-17 05:33N 51°48' E 004°38'0 0.0
2015-Aug-17 04:33N 51°48' E 004°38'0 0.0
2015-Aug-17 03:34N 51°48' E 004°38'0 0.0
2015-Aug-17 02:34N 51°48' E 004°38'0 0.0
2015-Aug-17 01:34N 51°48' E 004°38'0 0.0
2015-Aug-17 00:34N 51°48' E 004°38'0 0.0
2015-Aug-16 23:34N 51°48' E 004°38'0 0.0
2015-Aug-16 22:34N 51°48' E 004°38'0 0.0
2015-Aug-16 21:33N 51°48' E 004°38'0 0.0
2015-Aug-16 20:33N 51°48' E 004°38'0 0.0
2015-Aug-16 19:34N 51°48' E 004°38'0 0.0
2015-Aug-16 18:34N 51°48' E 004°38'0 0.0
2015-Aug-16 17:34N 51°48' E 004°38'0 0.0
2015-Aug-16 16:34N 51°48' E 004°38'0 0.0
2015-Aug-16 15:34N 51°48' E 004°38'0 0.0
2015-Aug-16 14:33N 51°48' E 004°38'0 0.0
2015-Aug-16 13:34N 51°48' E 004°38'0 0.0
2015-Aug-16 12:33N 51°48' E 004°38'0 0.0
2015-Aug-16 11:34N 51°48' E 004°38'0 0.0
2015-Aug-16 10:34N 51°48' E 004°38'0 0.0
2015-Aug-16 09:33N 51°48' E 004°38'0 0.0
2015-Aug-16 08:33N 51°48' E 004°38'0 0.0
2015-Aug-16 07:34N 51°48' E 004°38'0 0.0
2015-Aug-16 06:34N 51°48' E 004°38'0 0.0
2015-Aug-16 05:34N 51°48' E 004°38'0 0.0
2015-Aug-16 04:34N 51°48' E 004°38'0 0.0
2015-Aug-16 03:34N 51°48' E 004°38'0 0.0
2015-Aug-16 02:34N 51°48' E 004°38'0 0.0
2015-Aug-16 01:33N 51°48' E 004°38'0 0.0
2015-Aug-16 00:34N 51°48' E 004°38'0 0.0
2015-Aug-15 23:34N 51°48' E 004°38'0 0.0
2015-Aug-15 22:33N 51°48' E 004°38'0 0.0
2015-Aug-15 21:33N 51°48' E 004°38'0 0.0
2015-Aug-15 20:33N 51°48' E 004°38'0 0.0
2015-Aug-15 19:33N 51°48' E 004°38'0 0.0
2015-Aug-15 18:34N 51°48' E 004°38'0 0.0
2015-Aug-15 17:33N 51°48' E 004°38'0 0.0
2015-Aug-15 16:33N 51°48' E 004°38'0 0.0
2015-Aug-15 15:33N 51°48' E 004°38'0 0.0
2015-Aug-15 14:33N 51°48' E 004°38'0 0.0
2015-Aug-15 13:33N 51°48' E 004°38'0 0.0
2015-Aug-15 12:33N 51°48' E 004°38'0 0.0
2015-Aug-15 11:33N 51°48' E 004°38'0 0.0
2015-Aug-15 10:34N 51°48' E 004°38'0 0.0
2015-Aug-15 09:34N 51°48' E 004°38'0 0.0
2015-Aug-15 08:33N 51°48' E 004°38'0 0.0
2015-Aug-15 07:34N 51°48' E 004°38'0 0.0
2015-Aug-15 06:34N 51°48' E 004°38'0 0.0
2015-Aug-15 05:34N 51°48' E 004°38'0 0.0
2015-Aug-15 04:34N 51°48' E 004°38'0 0.0
2015-Aug-15 03:34N 51°48' E 004°38'0 0.0
2015-Aug-15 02:33N 51°48' E 004°38'0 0.0
2015-Aug-15 01:34N 51°48' E 004°38'0 0.0
2015-Aug-15 00:33N 51°48' E 004°38'0 0.0
2015-Aug-14 23:34N 51°48' E 004°38'0 0.0
2015-Aug-14 22:34N 51°48' E 004°38'0 0.0
2015-Aug-14 21:33N 51°48' E 004°38'0 0.0
2015-Aug-14 20:34N 51°48' E 004°38'0 0.0
2015-Aug-14 19:34N 51°48' E 004°38'0 0.0
2015-Aug-14 18:34N 51°48' E 004°38'3 3.0
2015-Aug-14 17:33N 51°49' E 004°34'9 8.8
2015-Aug-14 16:33N 51°52' E 004°20'8 8.4
2015-Aug-14 15:33N 51°57' E 004°10'1110.9
2015-Aug-14 14:33N 52°01' E 003°53'7 6.9
2015-Aug-14 13:33N 52°03' E 003°43'7811.0
2015-Aug-14 06:31N 52°46' E 001°57'1111.9
2015-Aug-14 05:33N 52°52' E 001°40'1211.7
2015-Aug-14 04:33N 52°57' E 001°23'1110.8
2015-Aug-14 03:33N 53°02' E 001°07'31 9.6
2015-Aug-14 00:22N 53°24' E 000°32'8 9.6
2015-Aug-13 23:33N 53°29' E 000°22'10 9.9
2015-Aug-13 22:33N 53°33' E 000°07'1111.3
2015-Aug-13 21:33N 53°38' W 000°10'1 1.0
2015-Aug-13 20:29N 53°38' W 000°12'0 0.0
2015-Aug-13 19:32N 53°38' W 000°12'0 0.0
2015-Aug-13 18:32N 53°38' W 000°12'0 0.0
2015-Aug-13 17:32N 53°38' W 000°12'0 0.0
2015-Aug-13 16:29N 53°38' W 000°12'0 0.0
2015-Aug-13 15:32N 53°38' W 000°12'  
Track history (hours):
 
Tides and Currents Weather Stations Pressure Air Temp Water Temp Dewpoint Dewpoint Depression Visibility Wind Speed Wind Dir Waves Ship Positions

Lehmann Sound

Last reported at 2015-Aug-23 15:11 UTC. Time now 2015-Aug-28 17:15 UTC.
Position N 56°56' E 020°07'.

Length 90 m; draft 3.9 m.

Type: Cargo ship. MMSI: 305476000.

Date/timePositionNaut miles runAvg speedWind from/ knotsBaromVisibWave heightAir tempDewpointWater temp
2015-Aug-23 15:11N 56°56' E 020°07'6 9.6
2015-Aug-23 14:31N 56°52' E 019°59'9 9.7
2015-Aug-23 13:33N 56°45' E 019°46'10 9.9
2015-Aug-23 12:33N 56°39' E 019°33'10 9.9
2015-Aug-23 11:33N 56°32' E 019°20'10 9.8
2015-Aug-23 10:33N 56°25' E 019°07'10 9.7
2015-Aug-23 09:33N 56°18' E 018°55'10 9.8
2015-Aug-23 08:33N 56°11' E 018°42'10 9.9
2015-Aug-23 07:33N 56°05' E 018°29'1010.0
2015-Aug-23 06:33N 55°58' E 018°15'10 9.9
2015-Aug-23 05:32N 55°51' E 018°02'1010.0
2015-Aug-23 04:33N 55°45' E 017°49'1010.0
2015-Aug-23 03:33N 55°38' E 017°35'1010.0
2015-Aug-23 02:33N 55°31' E 017°22'1010.1
2015-Aug-23 01:33N 55°24' E 017°09'1010.2
2015-Aug-23 00:33N 55°18' E 016°55'1010.1
2015-Aug-22 23:33N 55°12' E 016°42'10 9.7
2015-Aug-22 22:33N 55°05' E 016°29'10 9.9
2015-Aug-22 21:33N 54°59' E 016°16'1010.0
2015-Aug-22 20:33N 54°52' E 016°03'10 9.8
2015-Aug-22 19:33N 54°46' E 015°50'10 9.7
2015-Aug-22 18:33N 54°39' E 015°38'10 9.5
2015-Aug-22 17:33N 54°33' E 015°25'10 9.6
2015-Aug-22 16:33N 54°27' E 015°13'9 9.3
2015-Aug-22 15:33N 54°21' E 015°00'10 9.7
2015-Aug-22 14:33N 54°15' E 014°47'10 9.7
2015-Aug-22 13:33N 54°09' E 014°34'10 9.7
2015-Aug-22 12:33N 54°03' E 014°21'7 7.4
2015-Aug-22 11:33N 53°56' E 014°17'2 2.3
2015-Aug-22 10:32N 53°54' E 014°16'0 0.0
2015-Aug-22 09:32N 53°54' E 014°16'0 0.0
2015-Aug-22 08:32N 53°54' E 014°16'0 0.0
2015-Aug-22 07:32N 53°54' E 014°16'0 0.0
2015-Aug-22 06:32N 53°54' E 014°16'9 2.9
2015-Aug-22 03:33N 54°02' E 014°13'6 6.5
2015-Aug-22 02:33N 54°08' E 014°07'9 9.0
2015-Aug-22 01:33N 54°16' E 014°00'9 9.3
2015-Aug-22 00:34N 54°24' E 013°53'10 9.9
2015-Aug-21 23:34N 54°33' E 013°45'10 9.9
2015-Aug-21 22:33N 54°40' E 013°34'9 9.5
2015-Aug-21 21:33N 54°43' E 013°18'10 9.8
2015-Aug-21 20:33N 54°42' E 013°01'9 9.5
2015-Aug-21 19:34N 54°40' E 012°45'1010.0
2015-Aug-21 18:34N 54°35' E 012°30'10 9.8
2015-Aug-21 17:33N 54°30' E 012°16'9 8.7
2015-Aug-21 16:33N 54°25' E 012°04'10 9.7
2015-Aug-21 15:34N 54°25' E 011°47'10 9.6
2015-Aug-21 14:33N 54°29' E 011°32'10 9.8
2015-Aug-21 13:33N 54°33' E 011°17'9 9.5
2015-Aug-21 12:34N 54°35' E 011°01'1211.1
2015-Aug-21 11:29N 54°34' E 010°41'1010.5
2015-Aug-21 10:33N 54°31' E 010°25'10 9.9
2015-Aug-21 09:33N 54°24' E 010°12'3 3.2
2015-Aug-21 08:34N 54°22' E 010°08'5 5.2
2015-Aug-21 07:33N 54°21' E 009°60'5 5.4
2015-Aug-21 06:34N 54°22' E 009°51'8 7.4
2015-Aug-21 05:32N 54°17' E 009°40'9 7.9
2015-Aug-21 04:23N 54°11' E 009°29'5 6.1
2015-Aug-21 03:34N 54°09' E 009°21'7 7.4
2015-Aug-21 02:33N 54°02' E 009°18'7 7.5
2015-Aug-21 01:33N 53°55' E 009°12'4 3.7
2015-Aug-21 00:33N 53°53' E 009°06'5 4.5
2015-Aug-20 23:33N 53°51' E 008°60'9 8.5
2015-Aug-20 22:33N 53°51' E 008°45'8 8.1
2015-Aug-20 21:33N 53°57' E 008°36'8 8.3
2015-Aug-20 20:33N 53°59' E 008°23'10 9.6
2015-Aug-20 19:33N 53°59' E 008°06'10 9.5
2015-Aug-20 18:33N 53°57' E 007°51'9 9.3
2015-Aug-20 17:33N 53°55' E 007°35'10 9.6
2015-Aug-20 16:33N 53°52' E 007°19'9 9.0
2015-Aug-20 15:33N 53°50' E 007°04'8 8.6
2015-Aug-20 14:34N 53°48' E 006°51'19 9.3
2015-Aug-20 12:29N 53°43' E 006°19'910.0
2015-Aug-20 11:33N 53°40' E 006°04'1010.2
2015-Aug-20 10:33N 53°37' E 005°48'1010.4
2015-Aug-20 09:33N 53°34' E 005°31'1010.3
2015-Aug-20 08:33N 53°31' E 005°15'1010.4
2015-Aug-20 07:33N 53°27' E 004°58'1110.5
2015-Aug-20 06:33N 53°22' E 004°43'1111.0
2015-Aug-20 05:33N 53°12' E 004°34'1210.7
2015-Aug-20 04:28N 53°02' E 004°24'10 9.9
2015-Aug-20 03:24N 52°53' E 004°15'8 9.5
2015-Aug-20 02:31N 52°46' E 004°08'11 9.3
2015-Aug-20 01:19N 52°38' E 003°55'7 9.1
2015-Aug-20 00:33N 52°33' E 003°47'9 8.7
2015-Aug-19 23:33N 52°26' E 003°38'29 9.6
2015-Aug-19 20:33N 51°59' E 003°24'1411.2
2015-Aug-19 19:19N 51°46' E 003°16'1011.4
2015-Aug-19 18:28N 51°37' E 003°22'1112.2
2015-Aug-19 17:33N 51°28' E 003°31'8 7.7
2015-Aug-19 16:34N 51°27' E 003°43'0 0.0
2015-Aug-19 15:33N 51°27' E 003°43'0 0.0
2015-Aug-19 14:30N 51°27' E 003°43'0 0.0
2015-Aug-19 13:33N 51°27' E 003°43'0 0.0
2015-Aug-19 12:33N 51°27' E 003°43'0 0.0
2015-Aug-19 11:30N 51°27' E 003°43'0 0.0
2015-Aug-19 10:33N 51°27' E 003°43'0 0.0
2015-Aug-19 09:33N 51°27' E 003°43'0 0.0
2015-Aug-19 08:33N 51°27' E 003°43'0 0.0
2015-Aug-19 07:33N 51°27' E 003°43'0 0.0
2015-Aug-19 06:33N 51°27' E 003°43'0 0.0
2015-Aug-19 05:33N 51°27' E 003°43'0 0.0
2015-Aug-19 04:33N 51°27' E 003°43'0 0.0
2015-Aug-19 03:32N 51°27' E 003°43'0 0.0
2015-Aug-19 02:32N 51°27' E 003°43'0 0.0
2015-Aug-19 01:32N 51°27' E 003°43'0 0.0
2015-Aug-19 00:32N 51°27' E 003°43'3 2.8
2015-Aug-18 23:33N 51°26' E 003°39'1010.1
2015-Aug-18 22:33N 51°32' E 003°25'1310.3
2015-Aug-18 21:17N 51°43' E 003°15'8 9.7
2015-Aug-18 20:30N 51°51' E 003°15'9 9.8
2015-Aug-18 19:33N 51°60' E 003°20'9 8.0
2015-Aug-18 18:29N 52°03' E 003°33'7 8.0
2015-Aug-18 17:33N 52°03' E 003°45'7 7.3
2015-Aug-18 16:33N 52°02' E 003°57'9 8.5
2015-Aug-18 15:33N 51°58' E 004°09'9 9.0
2015-Aug-18 14:33N 51°52' E 004°20'9 8.9
2015-Aug-18 13:33N 51°49' E 004°34'3 3.1
2015-Aug-18 12:33N 51°48' E 004°38'0 0.0
2015-Aug-18 11:34N 51°48' E 004°38'0 0.0
2015-Aug-18 10:34N 51°48' E 004°38'0 0.0
2015-Aug-18 09:33N 51°48' E 004°38'0 0.0
2015-Aug-18 08:33N 51°48' E 004°38'0 0.0
2015-Aug-18 07:33N 51°48' E 004°38'0 0.0
2015-Aug-18 06:34N 51°48' E 004°38'0 0.0
2015-Aug-18 05:33N 51°48' E 004°38'0 0.0
2015-Aug-18 04:33N 51°48' E 004°38'0 0.0
2015-Aug-18 04:11N 51°48' E 004°38'0 0.0
2015-Aug-18 04:08N 51°48' E 004°38'0 0.0
2015-Aug-18 03:33N 51°48' E 004°38'0 0.0
2015-Aug-18 02:34N 51°48' E 004°38'0 0.0
2015-Aug-18 01:34N 51°48' E 004°38'0 0.0
2015-Aug-18 00:34N 51°48' E 004°38'0 0.0
2015-Aug-17 23:34N 51°48' E 004°38'0 0.0
2015-Aug-17 22:34N 51°48' E 004°38'0 0.0
2015-Aug-17 21:34N 51°48' E 004°38'0 0.0
2015-Aug-17 20:33N 51°48' E 004°38'0 0.0
2015-Aug-17 19:34N 51°48' E 004°38'0 0.0
2015-Aug-17 18:34N 51°48' E 004°38'0 0.0
2015-Aug-17 17:34N 51°48' E 004°38'0 0.0
2015-Aug-17 16:34N 51°48' E 004°38'0 0.0
2015-Aug-17 15:34N 51°48' E 004°38'0 0.0
2015-Aug-17 14:33N 51°48' E 004°38'0 0.0
2015-Aug-17 13:33N 51°48' E 004°38'0 0.0
2015-Aug-17 12:33N 51°48' E 004°38'0 0.0
2015-Aug-17 11:34N 51°48' E 004°38'0 0.0
2015-Aug-17 10:33N 51°48' E 004°38'0 0.0
2015-Aug-17 09:34N 51°48' E 004°38'0 0.0
2015-Aug-17 08:33N 51°48' E 004°38'0 0.0
2015-Aug-17 07:34N 51°48' E 004°38'0 0.0
2015-Aug-17 06:34N 51°48' E 004°38'0 0.0
2015-Aug-17 05:33N 51°48' E 004°38'0 0.0
2015-Aug-17 04:33N 51°48' E 004°38'0 0.0
2015-Aug-17 03:34N 51°48' E 004°38'0 0.0
2015-Aug-17 02:34N 51°48' E 004°38'0 0.0
2015-Aug-17 01:34N 51°48' E 004°38'0 0.0
2015-Aug-17 00:34N 51°48' E 004°38'0 0.0
2015-Aug-16 23:34N 51°48' E 004°38'0 0.0
2015-Aug-16 22:34N 51°48' E 004°38'0 0.0
2015-Aug-16 21:33N 51°48' E 004°38'0 0.0
2015-Aug-16 20:33N 51°48' E 004°38'0 0.0
2015-Aug-16 19:34N 51°48' E 004°38'0 0.0
2015-Aug-16 18:34N 51°48' E 004°38'0 0.0
2015-Aug-16 17:34N 51°48' E 004°38'0 0.0
2015-Aug-16 16:34N 51°48' E 004°38'0 0.0
2015-Aug-16 15:34N 51°48' E 004°38'0 0.0
2015-Aug-16 14:33N 51°48' E 004°38'0 0.0
2015-Aug-16 13:34N 51°48' E 004°38'0 0.0
2015-Aug-16 12:33N 51°48' E 004°38'0 0.0
2015-Aug-16 11:34N 51°48' E 004°38'0 0.0
2015-Aug-16 10:34N 51°48' E 004°38'0 0.0
2015-Aug-16 09:33N 51°48' E 004°38'0 0.0
2015-Aug-16 08:33N 51°48' E 004°38'0 0.0
2015-Aug-16 07:34N 51°48' E 004°38'0 0.0
2015-Aug-16 06:34N 51°48' E 004°38'0 0.0
2015-Aug-16 05:34N 51°48' E 004°38'0 0.0
2015-Aug-16 04:34N 51°48' E 004°38'0 0.0
2015-Aug-16 03:34N 51°48' E 004°38'0 0.0
2015-Aug-16 02:34N 51°48' E 004°38'0 0.0
2015-Aug-16 01:33N 51°48' E 004°38'0 0.0
2015-Aug-16 00:34N 51°48' E 004°38'0 0.0
2015-Aug-15 23:34N 51°48' E 004°38'0 0.0
2015-Aug-15 22:33N 51°48' E 004°38'0 0.0
2015-Aug-15 21:33N 51°48' E 004°38'0 0.0
2015-Aug-15 20:33N 51°48' E 004°38'0 0.0
2015-Aug-15 19:33N 51°48' E 004°38'0 0.0
2015-Aug-15 18:34N 51°48' E 004°38'0 0.0
2015-Aug-15 17:33N 51°48' E 004°38'0 0.0
2015-Aug-15 16:33N 51°48' E 004°38'0 0.0
2015-Aug-15 15:33N 51°48' E 004°38'0 0.0
2015-Aug-15 14:33N 51°48' E 004°38'0 0.0
2015-Aug-15 13:33N 51°48' E 004°38'0 0.0
2015-Aug-15 12:33N 51°48' E 004°38'0 0.0
2015-Aug-15 11:33N 51°48' E 004°38'0 0.0
2015-Aug-15 10:34N 51°48' E 004°38'0 0.0
2015-Aug-15 09:34N 51°48' E 004°38'0 0.0
2015-Aug-15 08:33N 51°48' E 004°38'0 0.0
2015-Aug-15 07:34N 51°48' E 004°38'0 0.0
2015-Aug-15 06:34N 51°48' E 004°38'0 0.0
2015-Aug-15 05:34N 51°48' E 004°38'0 0.0
2015-Aug-15 04:34N 51°48' E 004°38'0 0.0
2015-Aug-15 03:34N 51°48' E 004°38'0 0.0
2015-Aug-15 02:33N 51°48' E 004°38'0 0.0
2015-Aug-15 01:34N 51°48' E 004°38'0 0.0
2015-Aug-15 00:33N 51°48' E 004°38'0 0.0
2015-Aug-14 23:34N 51°48' E 004°38'0 0.0
2015-Aug-14 22:34N 51°48' E 004°38'0 0.0
2015-Aug-14 21:33N 51°48' E 004°38'0 0.0
2015-Aug-14 20:34N 51°48' E 004°38'0 0.0
2015-Aug-14 19:34N 51°48' E 004°38'0 0.0
2015-Aug-14 18:34N 51°48' E 004°38'3 3.0
2015-Aug-14 17:33N 51°49' E 004°34'9 8.8
2015-Aug-14 16:33N 51°52' E 004°20'8 8.4
2015-Aug-14 15:33N 51°57' E 004°10'1110.9
2015-Aug-14 14:33N 52°01' E 003°53'7 6.9
2015-Aug-14 13:33N 52°03' E 003°43'7811.0
2015-Aug-14 06:31N 52°46' E 001°57'1111.9
2015-Aug-14 05:33N 52°52' E 001°40'1211.7
2015-Aug-14 04:33N 52°57' E 001°23'1110.8
2015-Aug-14 03:33N 53°02' E 001°07'31 9.6
2015-Aug-14 00:22N 53°24' E 000°32'8 9.6
2015-Aug-13 23:33N 53°29' E 000°22'10 9.9
2015-Aug-13 22:33N 53°33' E 000°07'1111.3
2015-Aug-13 21:33N 53°38' W 000°10'1 1.0
2015-Aug-13 20:29N 53°38' W 000°12'0 0.0
2015-Aug-13 19:32N 53°38' W 000°12'0 0.0
2015-Aug-13 18:32N 53°38' W 000°12'0 0.0
2015-Aug-13 17:32N 53°38' W 000°12'0 0.0
2015-Aug-13 16:29N 53°38' W 000°12'0 0.0
2015-Aug-13 15:32N 53°38' W 000°12'  

Dump ship's entire track history